UAL694 KSFO-KSEA
Flight info
| Callsign | UAL694 |
|---|---|
| Flight time | 1h 30m |
| Altitude | 36000 |
| Route | TRUKN2 DEDHD RBL LMT HAWKZ8 |
| Aircraft | A320/M-SDE3FGHIRWY/LB1 |
Departure
| Time | 2026-05-03 23:43 |
|---|---|
| Airport | San Francisco International Airport (KSFO) |
Arrival
| Time | 2026-05-04 01:14 |
|---|---|
| Airport | Seattle–Tacoma International Airport (KSEA) |
| Time | Latitude | Longitude | Altitude | Speed | Heading |
|---|---|---|---|---|---|
| 2026-05-03 23:01 | 37.62024 | -122.38941 | 22 ft | 0 kts | 27° |
| 2026-05-03 23:07 | 37.62023 | -122.38941 | 22 ft | 0 kts | 27° |
| 2026-05-03 23:22 | 37.62023 | -122.38942 | 22 ft | 0 kts | 27° |
| 2026-05-03 23:24 | 37.62003 | -122.38955 | 26 ft | 4 kts | 27° |
| 2026-05-03 23:25 | 37.61978 | -122.38969 | 26 ft | 4 kts | 15° |
| 2026-05-03 23:25 | 37.61952 | -122.38974 | 23 ft | 4 kts | 348° |
| 2026-05-03 23:25 | 37.61932 | -122.38960 | 22 ft | 2 kts | 299° |
| 2026-05-03 23:25 | 37.61929 | -122.38954 | 22 ft | 0 kts | 298° |
| 2026-05-03 23:30 | 37.61934 | -122.38964 | 22 ft | 2 kts | 298° |
| 2026-05-03 23:30 | 37.61944 | -122.38988 | 22 ft | 4 kts | 298° |
| 2026-05-03 23:31 | 37.61961 | -122.39029 | 22 ft | 6 kts | 298° |
| 2026-05-03 23:31 | 37.61985 | -122.39084 | 22 ft | 8 kts | 298° |
| 2026-05-03 23:31 | 37.62015 | -122.39155 | 22 ft | 10 kts | 297° |
| 2026-05-03 23:31 | 37.62043 | -122.39207 | 22 ft | 5 kts | 322° |
| 2026-05-03 23:32 | 37.62081 | -122.39207 | 22 ft | 7 kts | 22° |
| 2026-05-03 23:32 | 37.62128 | -122.39177 | 22 ft | 8 kts | 28° |
| 2026-05-03 23:32 | 37.62184 | -122.39137 | 22 ft | 10 kts | 29° |
| 2026-05-03 23:32 | 37.62228 | -122.39094 | 22 ft | 8 kts | 58° |
| 2026-05-03 23:33 | 37.62247 | -122.39020 | 22 ft | 9 kts | 73° |
| 2026-05-03 23:33 | 37.62266 | -122.38942 | 22 ft | 8 kts | 75° |
| 2026-05-03 23:33 | 37.62246 | -122.38869 | 23 ft | 10 kts | 120° |
| 2026-05-03 23:33 | 37.62210 | -122.38785 | 22 ft | 12 kts | 117° |
| 2026-05-03 23:34 | 37.62172 | -122.38688 | 22 ft | 12 kts | 107° |
| 2026-05-03 23:34 | 37.62196 | -122.38587 | 22 ft | 13 kts | 86° |
| 2026-05-03 23:34 | 37.62157 | -122.38484 | 22 ft | 14 kts | 119° |
| 2026-05-03 23:34 | 37.62108 | -122.38368 | 22 ft | 16 kts | 117° |
| 2026-05-03 23:35 | 37.62054 | -122.38237 | 22 ft | 18 kts | 118° |
| 2026-05-03 23:35 | 37.61998 | -122.38106 | 22 ft | 13 kts | 119° |
| 2026-05-03 23:35 | 37.61951 | -122.37998 | 22 ft | 15 kts | 123° |
| 2026-05-03 23:35 | 37.61869 | -122.37908 | 22 ft | 17 kts | 151° |
| 2026-05-03 23:36 | 37.61805 | -122.37790 | 22 ft | 18 kts | 109° |
| 2026-05-03 23:36 | 37.61756 | -122.37641 | 22 ft | 20 kts | 110° |
| 2026-05-03 23:36 | 37.61704 | -122.37474 | 22 ft | 21 kts | 120° |
| 2026-05-03 23:36 | 37.61631 | -122.37302 | 22 ft | 23 kts | 118° |
| 2026-05-03 23:37 | 37.61595 | -122.37216 | 22 ft | 5 kts | 118° |
| 2026-05-03 23:37 | 37.61576 | -122.37170 | 24 ft | 7 kts | 118° |
| 2026-05-03 23:37 | 37.61551 | -122.37111 | 22 ft | 9 kts | 118° |
| 2026-05-03 23:37 | 37.61520 | -122.37038 | 22 ft | 10 kts | 117° |
| 2026-05-03 23:38 | 37.61483 | -122.36952 | 22 ft | 12 kts | 122° |
| 2026-05-03 23:38 | 37.61425 | -122.36863 | 22 ft | 14 kts | 134° |
| 2026-05-03 23:38 | 37.61358 | -122.36762 | 22 ft | 16 kts | 120° |
| 2026-05-03 23:38 | 37.61302 | -122.36630 | 24 ft | 18 kts | 118° |
| 2026-05-03 23:39 | 37.61238 | -122.36483 | 23 ft | 20 kts | 118° |
| 2026-05-03 23:39 | 37.61171 | -122.36319 | 23 ft | 22 kts | 117° |
| 2026-05-03 23:39 | 37.61097 | -122.36140 | 23 ft | 24 kts | 118° |
| 2026-05-03 23:39 | 37.61063 | -122.36063 | 22 ft | 2 kts | 118° |
| 2026-05-03 23:40 | 37.61054 | -122.36039 | 23 ft | 4 kts | 113° |
| 2026-05-03 23:40 | 37.61050 | -122.35998 | 22 ft | 6 kts | 88° |
| 2026-05-03 23:40 | 37.61065 | -122.35945 | 23 ft | 7 kts | 60° |
| 2026-05-03 23:40 | 37.61108 | -122.35899 | 24 ft | 9 kts | 27° |
| 2026-05-03 23:41 | 37.61173 | -122.35880 | 23 ft | 10 kts | 341° |
| 2026-05-03 23:41 | 37.61220 | -122.35954 | 22 ft | 12 kts | 298° |
| 2026-05-03 23:41 | 37.61222 | -122.35960 | 22 ft | 0 kts | 298° |
| 2026-05-03 23:42 | 37.61268 | -122.36070 | 23 ft | 45 kts | 297° |
| 2026-05-03 23:42 | 37.61514 | -122.36668 | 24 ft | 105 kts | 299° |
| 2026-05-03 23:42 | 37.61934 | -122.37652 | 23 ft | 151 kts | 299° |
| 2026-05-03 23:43 | 37.62470 | -122.38945 | 306 ft | 167 kts | 294° |
| 2026-05-03 23:43 | 37.63052 | -122.40211 | 918 ft | 170 kts | 307° |
| 2026-05-03 23:43 | 37.64111 | -122.40912 | 1500 ft | 182 kts | 354° |
| 2026-05-03 23:43 | 37.65342 | -122.40446 | 1986 ft | 199 kts | 37° |
| 2026-05-03 23:44 | 37.66195 | -122.38951 | 2243 ft | 224 kts | 65° |
| 2026-05-03 23:44 | 37.66797 | -122.37058 | 2586 ft | 248 kts | 72° |
| 2026-05-03 23:44 | 37.67390 | -122.34908 | 3041 ft | 269 kts | 71° |
| 2026-05-03 23:44 | 37.68029 | -122.32655 | 3810 ft | 275 kts | 71° |
| 2026-05-03 23:45 | 37.68711 | -122.30401 | 4773 ft | 275 kts | 70° |
| 2026-05-03 23:45 | 37.69433 | -122.28166 | 5729 ft | 274 kts | 70° |
| 2026-05-03 23:45 | 37.70179 | -122.25962 | 6640 ft | 274 kts | 70° |
| 2026-05-03 23:45 | 37.71108 | -122.23840 | 7446 ft | 280 kts | 55° |
| 2026-05-03 23:46 | 37.72546 | -122.22132 | 8201 ft | 290 kts | 36° |
| 2026-05-03 23:46 | 37.74405 | -122.21077 | 8952 ft | 298 kts | 15° |
| 2026-05-03 23:46 | 37.76469 | -122.20683 | 9714 ft | 303 kts | 8° |
| 2026-05-03 23:46 | 37.78580 | -122.20355 | 10377 ft | 309 kts | 8° |
| 2026-05-03 23:47 | 37.80792 | -122.19996 | 10573 ft | 332 kts | 9° |
| 2026-05-03 23:47 | 37.83151 | -122.19603 | 10842 ft | 349 kts | 9° |
| 2026-05-03 23:47 | 37.85584 | -122.19198 | 11451 ft | 354 kts | 9° |
| 2026-05-03 23:47 | 37.88042 | -122.18792 | 12098 ft | 358 kts | 9° |
| 2026-05-03 23:48 | 37.90517 | -122.18385 | 12779 ft | 360 kts | 9° |
| 2026-05-03 23:48 | 37.93015 | -122.17980 | 13457 ft | 363 kts | 9° |
| 2026-05-03 23:48 | 37.95529 | -122.17572 | 14083 ft | 366 kts | 9° |
| 2026-05-03 23:48 | 37.98073 | -122.17155 | 14664 ft | 369 kts | 9° |
| 2026-05-03 23:49 | 38.00636 | -122.16730 | 15228 ft | 373 kts | 9° |
| 2026-05-03 23:49 | 38.03181 | -122.16309 | 15775 ft | 375 kts | 9° |
| 2026-05-03 23:49 | 38.05818 | -122.15875 | 16338 ft | 379 kts | 9° |
| 2026-05-03 23:49 | 38.08402 | -122.15449 | 16891 ft | 382 kts | 9° |
| 2026-05-03 23:50 | 38.11048 | -122.15011 | 17456 ft | 385 kts | 9° |
| 2026-05-03 23:50 | 38.12846 | -122.14712 | 17851 ft | 387 kts | 9° |
| 2026-05-03 23:50 | 38.16404 | -122.14117 | 18566 ft | 391 kts | 10° |
| 2026-05-03 23:50 | 38.19111 | -122.13664 | 19100 ft | 393 kts | 10° |
| 2026-05-03 23:51 | 38.21837 | -122.13212 | 19641 ft | 396 kts | 10° |
| 2026-05-03 23:51 | 38.24582 | -122.12758 | 20190 ft | 398 kts | 11° |
| 2026-05-03 23:51 | 38.27340 | -122.12301 | 20735 ft | 401 kts | 11° |
| 2026-05-03 23:51 | 38.30110 | -122.11844 | 21217 ft | 403 kts | 11° |
| 2026-05-03 23:52 | 38.32910 | -122.11412 | 21734 ft | 408 kts | 8° |
| 2026-05-03 23:52 | 38.35769 | -122.11420 | 22226 ft | 414 kts | 1° |
| 2026-05-03 23:52 | 38.38657 | -122.11629 | 22723 ft | 417 kts | 1° |
| 2026-05-03 23:52 | 38.41558 | -122.11834 | 23212 ft | 419 kts | 1° |
| 2026-05-03 23:53 | 38.44479 | -122.12034 | 23673 ft | 421 kts | 2° |
| 2026-05-03 23:53 | 38.47419 | -122.12229 | 24104 ft | 423 kts | 2° |
| 2026-05-03 23:53 | 38.50359 | -122.12424 | 24512 ft | 424 kts | 2° |
| 2026-05-03 23:53 | 38.53307 | -122.12625 | 24945 ft | 425 kts | 2° |
| 2026-05-03 23:54 | 38.56260 | -122.12830 | 25360 ft | 425 kts | 2° |
| 2026-05-03 23:54 | 38.59221 | -122.13034 | 25730 ft | 427 kts | 2° |
| 2026-05-03 23:54 | 38.62149 | -122.13237 | 26147 ft | 427 kts | 2° |
| 2026-05-03 23:54 | 38.65120 | -122.13447 | 26551 ft | 428 kts | 2° |
| 2026-05-03 23:55 | 38.68097 | -122.13658 | 26944 ft | 429 kts | 2° |
| 2026-05-03 23:55 | 38.71085 | -122.13865 | 27320 ft | 430 kts | 2° |
| 2026-05-03 23:55 | 38.74079 | -122.14070 | 27686 ft | 432 kts | 2° |
| 2026-05-03 23:55 | 38.77084 | -122.14274 | 28046 ft | 433 kts | 2° |
| 2026-05-03 23:56 | 38.80092 | -122.14479 | 28399 ft | 435 kts | 2° |
| 2026-05-03 23:56 | 38.83121 | -122.14686 | 28745 ft | 437 kts | 2° |
| 2026-05-03 23:56 | 38.86163 | -122.14893 | 29074 ft | 439 kts | 2° |
| 2026-05-03 23:56 | 38.89225 | -122.15104 | 29424 ft | 440 kts | 3° |
| 2026-05-03 23:57 | 38.92281 | -122.15318 | 29886 ft | 439 kts | 3° |
| 2026-05-03 23:57 | 38.95331 | -122.15533 | 30293 ft | 439 kts | 3° |
| 2026-05-03 23:57 | 38.98377 | -122.15747 | 30662 ft | 438 kts | 3° |
| 2026-05-03 23:57 | 39.01421 | -122.15958 | 31036 ft | 438 kts | 3° |
| 2026-05-03 23:58 | 39.03440 | -122.16099 | 31289 ft | 438 kts | 2° |
| 2026-05-03 23:58 | 39.06482 | -122.16312 | 31670 ft | 438 kts | 3° |
| 2026-05-03 23:58 | 39.09523 | -122.16525 | 32043 ft | 437 kts | 2° |
| 2026-05-03 23:58 | 39.12562 | -122.16740 | 32419 ft | 437 kts | 2° |
| 2026-05-03 23:59 | 39.15598 | -122.16951 | 32807 ft | 437 kts | 3° |
| 2026-05-03 23:59 | 39.18631 | -122.17160 | 33190 ft | 436 kts | 3° |
| 2026-05-03 23:59 | 39.21660 | -122.17370 | 33584 ft | 436 kts | 3° |
| 2026-05-03 23:59 | 39.24687 | -122.17584 | 33945 ft | 435 kts | 2° |
| 2026-05-04 00:00 | 39.27709 | -122.17797 | 34231 ft | 436 kts | 2° |
| 2026-05-04 00:00 | 39.30739 | -122.18011 | 34484 ft | 436 kts | 2° |
| 2026-05-04 00:00 | 39.33773 | -122.18225 | 34730 ft | 437 kts | 1° |
| 2026-05-04 00:00 | 39.36811 | -122.18436 | 34972 ft | 438 kts | 1° |
| 2026-05-04 00:01 | 39.39855 | -122.18648 | 35208 ft | 438 kts | 0° |
| 2026-05-04 00:01 | 39.42904 | -122.18859 | 35447 ft | 439 kts | 0° |
| 2026-05-04 00:01 | 39.45951 | -122.19071 | 35690 ft | 439 kts | 360° |
| 2026-05-04 00:01 | 39.49008 | -122.19286 | 35880 ft | 440 kts | 359° |
| 2026-05-04 00:02 | 39.55166 | -122.19719 | 35930 ft | 449 kts | 359° |
| 2026-05-04 00:02 | 39.61462 | -122.20163 | 35933 ft | 461 kts | 359° |
| 2026-05-04 00:03 | 39.67928 | -122.20624 | 35936 ft | 470 kts | 359° |
| 2026-05-04 00:03 | 39.74475 | -122.21102 | 35941 ft | 472 kts | 359° |
| 2026-05-04 00:04 | 39.81026 | -122.21577 | 35937 ft | 471 kts | 359° |
| 2026-05-04 00:04 | 39.87571 | -122.22038 | 35934 ft | 471 kts | 359° |
| 2026-05-04 00:05 | 39.94111 | -122.22503 | 35945 ft | 471 kts | 360° |
| 2026-05-04 00:05 | 40.00652 | -122.22968 | 35961 ft | 471 kts | 360° |
| 2026-05-04 00:06 | 40.07194 | -122.23435 | 35974 ft | 471 kts | 360° |
| 2026-05-04 00:06 | 40.13654 | -122.22739 | 35977 ft | 465 kts | 13° |
| 2026-05-04 00:07 | 40.20021 | -122.21207 | 35973 ft | 466 kts | 13° |
| 2026-05-04 00:07 | 40.26399 | -122.19662 | 35963 ft | 466 kts | 13° |
| 2026-05-04 00:08 | 40.32783 | -122.18123 | 35951 ft | 467 kts | 13° |
| 2026-05-04 00:08 | 40.39178 | -122.16579 | 35916 ft | 467 kts | 13° |
| 2026-05-04 00:09 | 40.45578 | -122.15025 | 35923 ft | 468 kts | 13° |
| 2026-05-04 00:09 | 40.51984 | -122.13472 | 35923 ft | 468 kts | 13° |
| 2026-05-04 00:10 | 40.58390 | -122.11912 | 35923 ft | 468 kts | 13° |
| 2026-05-04 00:10 | 40.64790 | -122.10350 | 35924 ft | 467 kts | 13° |
| 2026-05-04 00:11 | 40.71176 | -122.08782 | 35922 ft | 467 kts | 13° |
| 2026-05-04 00:11 | 40.77558 | -122.07224 | 35923 ft | 466 kts | 13° |
| 2026-05-04 00:12 | 40.83930 | -122.05669 | 35920 ft | 465 kts | 13° |
| 2026-05-04 00:12 | 40.90254 | -122.04119 | 35924 ft | 465 kts | 13° |
| 2026-05-04 00:13 | 40.96603 | -122.02553 | 35925 ft | 464 kts | 13° |
| 2026-05-04 00:13 | 41.02949 | -122.00987 | 35926 ft | 464 kts | 13° |
| 2026-05-04 00:14 | 41.09287 | -121.99417 | 35934 ft | 463 kts | 13° |
| 2026-05-04 00:14 | 41.15610 | -121.97856 | 35939 ft | 462 kts | 13° |
| 2026-05-04 00:15 | 41.21931 | -121.96294 | 35949 ft | 461 kts | 13° |
| 2026-05-04 00:15 | 41.28237 | -121.94724 | 35953 ft | 461 kts | 13° |
| 2026-05-04 00:16 | 41.34544 | -121.93151 | 35963 ft | 461 kts | 13° |
| 2026-05-04 00:16 | 41.40844 | -121.91581 | 35956 ft | 460 kts | 13° |
| 2026-05-04 00:17 | 41.47126 | -121.90014 | 35951 ft | 460 kts | 13° |
| 2026-05-04 00:17 | 41.53378 | -121.88450 | 35944 ft | 460 kts | 13° |
| 2026-05-04 00:18 | 41.59669 | -121.86867 | 35935 ft | 460 kts | 13° |
| 2026-05-04 00:18 | 41.65966 | -121.85270 | 35932 ft | 460 kts | 13° |
| 2026-05-04 00:19 | 41.72266 | -121.83680 | 35928 ft | 461 kts | 12° |
| 2026-05-04 00:19 | 41.78572 | -121.82099 | 35921 ft | 462 kts | 12° |
| 2026-05-04 00:20 | 41.84890 | -121.80501 | 35932 ft | 462 kts | 12° |
| 2026-05-04 00:20 | 41.91209 | -121.78891 | 35947 ft | 462 kts | 12° |
| 2026-05-04 00:21 | 41.97534 | -121.77284 | 35965 ft | 463 kts | 12° |
| 2026-05-04 00:21 | 42.03867 | -121.75676 | 35989 ft | 463 kts | 12° |
| 2026-05-04 00:22 | 42.10156 | -121.74080 | 36004 ft | 463 kts | 12° |
| 2026-05-04 00:22 | 42.16559 | -121.73196 | 36002 ft | 465 kts | 358° |
| 2026-05-04 00:23 | 42.22970 | -121.74486 | 36006 ft | 466 kts | 352° |
| 2026-05-04 00:23 | 42.29365 | -121.75940 | 35994 ft | 466 kts | 352° |
| 2026-05-04 00:24 | 42.35755 | -121.77392 | 35975 ft | 465 kts | 352° |
| 2026-05-04 00:24 | 42.42139 | -121.78844 | 35951 ft | 465 kts | 352° |
| 2026-05-04 00:25 | 42.48525 | -121.80296 | 35933 ft | 464 kts | 352° |
| 2026-05-04 00:25 | 42.54893 | -121.81758 | 35923 ft | 464 kts | 351° |
| 2026-05-04 00:26 | 42.61248 | -121.83221 | 35927 ft | 463 kts | 352° |
| 2026-05-04 00:26 | 42.67586 | -121.84676 | 35929 ft | 462 kts | 351° |
| 2026-05-04 00:27 | 42.73915 | -121.86123 | 35924 ft | 461 kts | 351° |
| 2026-05-04 00:27 | 42.80200 | -121.87575 | 35909 ft | 461 kts | 351° |
| 2026-05-04 00:28 | 42.86539 | -121.89041 | 35902 ft | 462 kts | 351° |
| 2026-05-04 00:28 | 42.92887 | -121.90520 | 35910 ft | 463 kts | 351° |
| 2026-05-04 00:29 | 42.99240 | -121.91997 | 35922 ft | 463 kts | 352° |
| 2026-05-04 00:29 | 43.05595 | -121.93474 | 35935 ft | 463 kts | 351° |
| 2026-05-04 00:30 | 43.11951 | -121.94949 | 35937 ft | 463 kts | 352° |
| 2026-05-04 00:30 | 43.18309 | -121.96429 | 35943 ft | 463 kts | 352° |
| 2026-05-04 00:31 | 43.24656 | -121.97920 | 35915 ft | 462 kts | 351° |
| 2026-05-04 00:31 | 43.30991 | -121.99412 | 35919 ft | 462 kts | 352° |
| 2026-05-04 00:32 | 43.37337 | -122.00902 | 35919 ft | 463 kts | 351° |
| 2026-05-04 00:32 | 43.43683 | -122.02397 | 35917 ft | 463 kts | 351° |
| 2026-05-04 00:33 | 43.53204 | -122.04658 | 35923 ft | 463 kts | 352° |
| 2026-05-04 00:34 | 43.59556 | -122.06166 | 35931 ft | 463 kts | 352° |
| 2026-05-04 00:34 | 43.65912 | -122.07675 | 35931 ft | 464 kts | 352° |
| 2026-05-04 00:35 | 43.72227 | -122.09167 | 35932 ft | 464 kts | 352° |
| 2026-05-04 00:35 | 43.78588 | -122.10681 | 35939 ft | 464 kts | 352° |
| 2026-05-04 00:36 | 43.84954 | -122.12202 | 35937 ft | 464 kts | 352° |
| 2026-05-04 00:36 | 43.91323 | -122.13722 | 35937 ft | 464 kts | 352° |
| 2026-05-04 00:37 | 43.97687 | -122.15248 | 35930 ft | 464 kts | 352° |
| 2026-05-04 00:37 | 44.04060 | -122.16790 | 35929 ft | 465 kts | 352° |
| 2026-05-04 00:38 | 44.10430 | -122.18333 | 35929 ft | 465 kts | 352° |
| 2026-05-04 00:38 | 44.16790 | -122.19862 | 35903 ft | 463 kts | 353° |
| 2026-05-04 00:39 | 44.23094 | -122.21380 | 35904 ft | 462 kts | 353° |
| 2026-05-04 00:39 | 44.29430 | -122.22923 | 35901 ft | 462 kts | 353° |
| 2026-05-04 00:40 | 44.35751 | -122.24468 | 35887 ft | 461 kts | 353° |
| 2026-05-04 00:40 | 44.42060 | -122.26008 | 35882 ft | 460 kts | 353° |
| 2026-05-04 00:41 | 44.48378 | -122.27541 | 35886 ft | 460 kts | 353° |
| 2026-05-04 00:41 | 44.54700 | -122.29083 | 35890 ft | 461 kts | 353° |
| 2026-05-04 00:42 | 44.61016 | -122.30632 | 35893 ft | 461 kts | 353° |
| 2026-05-04 00:42 | 44.67330 | -122.32188 | 35897 ft | 460 kts | 353° |
| 2026-05-04 00:43 | 44.73642 | -122.33746 | 35905 ft | 460 kts | 353° |
| 2026-05-04 00:43 | 44.79945 | -122.35302 | 35905 ft | 459 kts | 353° |
| 2026-05-04 00:44 | 44.86238 | -122.36849 | 35900 ft | 458 kts | 352° |
| 2026-05-04 00:44 | 44.92520 | -122.38401 | 35895 ft | 458 kts | 352° |
| 2026-05-04 00:45 | 44.98800 | -122.39975 | 35888 ft | 458 kts | 352° |
| 2026-05-04 00:45 | 45.05036 | -122.41536 | 35877 ft | 458 kts | 352° |
| 2026-05-04 00:46 | 45.11309 | -122.43096 | 35869 ft | 458 kts | 353° |
| 2026-05-04 00:46 | 45.17579 | -122.44660 | 35866 ft | 458 kts | 352° |
| 2026-05-04 00:47 | 45.22835 | -122.45980 | 35860 ft | 457 kts | 352° |
| 2026-05-04 00:47 | 45.29096 | -122.47558 | 35858 ft | 457 kts | 352° |
| 2026-05-04 00:48 | 45.35360 | -122.49141 | 35846 ft | 457 kts | 353° |
| 2026-05-04 00:48 | 45.41590 | -122.50710 | 35557 ft | 448 kts | 353° |
| 2026-05-04 00:48 | 45.44625 | -122.51479 | 35268 ft | 442 kts | 353° |
| 2026-05-04 00:49 | 45.47662 | -122.52248 | 35021 ft | 442 kts | 353° |
| 2026-05-04 00:49 | 45.50400 | -122.52942 | 34803 ft | 442 kts | 353° |
| 2026-05-04 00:49 | 45.53134 | -122.53634 | 34583 ft | 442 kts | 353° |
| 2026-05-04 00:49 | 45.56171 | -122.54406 | 34335 ft | 443 kts | 352° |
| 2026-05-04 00:50 | 45.59165 | -122.55170 | 34117 ft | 443 kts | 352° |
| 2026-05-04 00:50 | 45.62240 | -122.55951 | 33867 ft | 443 kts | 352° |
| 2026-05-04 00:50 | 45.65274 | -122.56723 | 33544 ft | 444 kts | 352° |
| 2026-05-04 00:50 | 45.68274 | -122.57485 | 33065 ft | 444 kts | 352° |
| 2026-05-04 00:51 | 45.71324 | -122.58259 | 32560 ft | 445 kts | 352° |
| 2026-05-04 00:51 | 45.74376 | -122.59036 | 32046 ft | 447 kts | 352° |
| 2026-05-04 00:51 | 45.77445 | -122.59814 | 31494 ft | 449 kts | 352° |
| 2026-05-04 00:51 | 45.80531 | -122.60583 | 30936 ft | 450 kts | 352° |
| 2026-05-04 00:52 | 45.83625 | -122.61346 | 30392 ft | 452 kts | 352° |
| 2026-05-04 00:52 | 45.86734 | -122.62109 | 29845 ft | 454 kts | 352° |
| 2026-05-04 00:52 | 45.89855 | -122.62874 | 29254 ft | 456 kts | 352° |
| 2026-05-04 00:52 | 45.92991 | -122.63644 | 28733 ft | 458 kts | 352° |
| 2026-05-04 00:53 | 45.96142 | -122.64422 | 28209 ft | 460 kts | 352° |
| 2026-05-04 00:53 | 45.99302 | -122.65207 | 27695 ft | 462 kts | 352° |
| 2026-05-04 00:53 | 46.02475 | -122.66000 | 27179 ft | 464 kts | 352° |
| 2026-05-04 00:53 | 46.05045 | -122.66642 | 26771 ft | 465 kts | 352° |
| 2026-05-04 00:54 | 46.08247 | -122.67442 | 26264 ft | 467 kts | 352° |
| 2026-05-04 00:54 | 46.11456 | -122.68218 | 25751 ft | 468 kts | 353° |
| 2026-05-04 00:54 | 46.14684 | -122.68908 | 25231 ft | 470 kts | 353° |
| 2026-05-04 00:54 | 46.17930 | -122.69535 | 24702 ft | 471 kts | 354° |
| 2026-05-04 00:55 | 46.21189 | -122.70139 | 24172 ft | 473 kts | 354° |
| 2026-05-04 00:55 | 46.24458 | -122.70744 | 23608 ft | 475 kts | 354° |
| 2026-05-04 00:55 | 46.27697 | -122.71358 | 22987 ft | 477 kts | 354° |
| 2026-05-04 00:55 | 46.30980 | -122.71995 | 22413 ft | 475 kts | 354° |
| 2026-05-04 00:56 | 46.34257 | -122.72319 | 21833 ft | 470 kts | 359° |
| 2026-05-04 00:56 | 46.37511 | -122.72478 | 20992 ft | 464 kts | 359° |
| 2026-05-04 00:56 | 46.40730 | -122.72593 | 19874 ft | 461 kts | 360° |
| 2026-05-04 00:56 | 46.43924 | -122.72685 | 18993 ft | 455 kts | 360° |
| 2026-05-04 00:57 | 46.47022 | -122.72770 | 18781 ft | 435 kts | 360° |
| 2026-05-04 00:57 | 46.49975 | -122.72856 | 18668 ft | 415 kts | 360° |
| 2026-05-04 00:57 | 46.52766 | -122.72950 | 18539 ft | 386 kts | 359° |
| 2026-05-04 00:57 | 46.55362 | -122.73046 | 18284 ft | 363 kts | 359° |
| 2026-05-04 00:58 | 46.57853 | -122.73141 | 17637 ft | 352 kts | 360° |
| 2026-05-04 00:58 | 46.60252 | -122.73233 | 17194 ft | 337 kts | 360° |
| 2026-05-04 00:58 | 46.62550 | -122.73317 | 16779 ft | 323 kts | 360° |
| 2026-05-04 00:58 | 46.64754 | -122.73397 | 16384 ft | 312 kts | 360° |
| 2026-05-04 00:59 | 46.66921 | -122.73475 | 15990 ft | 312 kts | 360° |
| 2026-05-04 00:59 | 46.69093 | -122.73552 | 15591 ft | 312 kts | 360° |
| 2026-05-04 00:59 | 46.71265 | -122.73629 | 15202 ft | 313 kts | 359° |
| 2026-05-04 00:59 | 46.73442 | -122.73705 | 14806 ft | 313 kts | 359° |
| 2026-05-04 01:00 | 46.75618 | -122.73764 | 14415 ft | 313 kts | 3° |
| 2026-05-04 01:00 | 46.77762 | -122.73312 | 14031 ft | 312 kts | 16° |
| 2026-05-04 01:00 | 46.79765 | -122.72123 | 13616 ft | 311 kts | 30° |
| 2026-05-04 01:00 | 46.81527 | -122.70288 | 13214 ft | 311 kts | 40° |
| 2026-05-04 01:01 | 46.83197 | -122.68292 | 12824 ft | 309 kts | 39° |
| 2026-05-04 01:01 | 46.84855 | -122.66299 | 12435 ft | 309 kts | 40° |
| 2026-05-04 01:01 | 46.86457 | -122.64211 | 12057 ft | 308 kts | 43° |
| 2026-05-04 01:01 | 46.88012 | -122.62067 | 11669 ft | 307 kts | 43° |
| 2026-05-04 01:02 | 46.89551 | -122.59904 | 11348 ft | 304 kts | 44° |
| 2026-05-04 01:02 | 46.91058 | -122.57777 | 11125 ft | 298 kts | 44° |
| 2026-05-04 01:02 | 46.92531 | -122.55615 | 10612 ft | 303 kts | 45° |
| 2026-05-04 01:02 | 46.93980 | -122.53411 | 10379 ft | 298 kts | 46° |
| 2026-05-04 01:03 | 46.95401 | -122.51227 | 10153 ft | 293 kts | 46° |
| 2026-05-04 01:03 | 46.96788 | -122.49098 | 10025 ft | 283 kts | 45° |
| 2026-05-04 01:03 | 46.98155 | -122.47109 | 9668 ft | 274 kts | 38° |
| 2026-05-04 01:03 | 46.99731 | -122.45587 | 9146 ft | 270 kts | 29° |
| 2026-05-04 01:04 | 47.01355 | -122.44226 | 8615 ft | 268 kts | 29° |
| 2026-05-04 01:04 | 47.01897 | -122.43771 | 8460 ft | 266 kts | 29° |
| 2026-05-04 01:04 | 47.02956 | -122.42840 | 8364 ft | 248 kts | 34° |
| 2026-05-04 01:04 | 47.04365 | -122.41383 | 8252 ft | 262 kts | 31° |
| 2026-05-04 01:05 | 47.05978 | -122.39991 | 7759 ft | 271 kts | 28° |
| 2026-05-04 01:05 | 47.07590 | -122.38709 | 7621 ft | 263 kts | 27° |
| 2026-05-04 01:05 | 47.09191 | -122.37443 | 7514 ft | 255 kts | 27° |
| 2026-05-04 01:05 | 47.10702 | -122.36229 | 7387 ft | 247 kts | 27° |
| 2026-05-04 01:06 | 47.12205 | -122.35119 | 7259 ft | 237 kts | 18° |
| 2026-05-04 01:06 | 47.13775 | -122.34557 | 7144 ft | 228 kts | 7° |
| 2026-05-04 01:06 | 47.15305 | -122.34228 | 7020 ft | 214 kts | 7° |
| 2026-05-04 01:06 | 47.16721 | -122.33910 | 6690 ft | 205 kts | 7° |
| 2026-05-04 01:07 | 47.18118 | -122.33592 | 6423 ft | 195 kts | 8° |
| 2026-05-04 01:07 | 47.19372 | -122.33303 | 6247 ft | 170 kts | 7° |
| 2026-05-04 01:07 | 47.20483 | -122.33047 | 6024 ft | 151 kts | 7° |
| 2026-05-04 01:07 | 47.21487 | -122.32818 | 5719 ft | 143 kts | 7° |
| 2026-05-04 01:08 | 47.22460 | -122.32599 | 5336 ft | 140 kts | 7° |
| 2026-05-04 01:08 | 47.23423 | -122.32372 | 4956 ft | 140 kts | 11° |
| 2026-05-04 01:08 | 47.24389 | -122.32164 | 4565 ft | 141 kts | 5° |
| 2026-05-04 01:08 | 47.25376 | -122.32057 | 4204 ft | 143 kts | 1° |
| 2026-05-04 01:09 | 47.26365 | -122.32001 | 3861 ft | 143 kts | 1° |
| 2026-05-04 01:09 | 47.27354 | -122.31975 | 3593 ft | 142 kts | 1° |
| 2026-05-04 01:09 | 47.28336 | -122.31948 | 3339 ft | 141 kts | 1° |
| 2026-05-04 01:09 | 47.29322 | -122.31937 | 3227 ft | 143 kts | 1° |
| 2026-05-04 01:10 | 47.30313 | -122.31949 | 3135 ft | 143 kts | 359° |
| 2026-05-04 01:10 | 47.31316 | -122.31935 | 2801 ft | 142 kts | 1° |
| 2026-05-04 01:10 | 47.32300 | -122.31913 | 2609 ft | 141 kts | 360° |
| 2026-05-04 01:10 | 47.33282 | -122.31912 | 2447 ft | 140 kts | 0° |
| 2026-05-04 01:11 | 47.34256 | -122.31906 | 2286 ft | 141 kts | 0° |
| 2026-05-04 01:11 | 47.35230 | -122.31895 | 2031 ft | 138 kts | 0° |
| 2026-05-04 01:11 | 47.36198 | -122.31891 | 1835 ft | 139 kts | 0° |
| 2026-05-04 01:11 | 47.37161 | -122.31867 | 1617 ft | 137 kts | 0° |
| 2026-05-04 01:12 | 47.38106 | -122.31858 | 1435 ft | 139 kts | 359° |
| 2026-05-04 01:12 | 47.39070 | -122.31854 | 1303 ft | 140 kts | 1° |
| 2026-05-04 01:12 | 47.40034 | -122.31847 | 1137 ft | 139 kts | 359° |
| 2026-05-04 01:12 | 47.40998 | -122.31842 | 958 ft | 138 kts | 359° |
| 2026-05-04 01:13 | 47.41955 | -122.31828 | 790 ft | 138 kts | 0° |
| 2026-05-04 01:13 | 47.42917 | -122.31825 | 586 ft | 138 kts | 2° |
| 2026-05-04 01:13 | 47.43886 | -122.31814 | 453 ft | 141 kts | 359° |
| 2026-05-04 01:13 | 47.44808 | -122.31809 | 389 ft | 108 kts | 0° |
| 2026-05-04 01:14 | 47.45272 | -122.31794 | 397 ft | 26 kts | 6° |
| 2026-05-04 01:14 | 47.45385 | -122.31701 | 399 ft | 18 kts | 30° |
| 2026-05-04 01:14 | 47.45428 | -122.31658 | 401 ft | 0 kts | 40° |
| 2026-05-04 01:15 | 47.45428 | -122.31657 | 401 ft | 0 kts | 40° |
| 2026-05-04 01:15 | 47.45432 | -122.31652 | 399 ft | 1 kts | 39° |
| 2026-05-04 01:15 | 47.45443 | -122.31639 | 402 ft | 2 kts | 41° |
| 2026-05-04 01:15 | 47.45449 | -122.31629 | 400 ft | 1 kts | 45° |
| 2026-05-04 01:16 | 47.45465 | -122.31601 | 401 ft | 7 kts | 53° |
| 2026-05-04 01:16 | 47.45495 | -122.31509 | 407 ft | 10 kts | 72° |
| 2026-05-04 01:16 | 47.45506 | -122.31422 | 411 ft | 8 kts | 83° |
| 2026-05-04 01:16 | 47.45508 | -122.31305 | 414 ft | 20 kts | 90° |
| 2026-05-04 01:17 | 47.45504 | -122.31037 | 414 ft | 28 kts | 91° |
| 2026-05-04 01:17 | 47.45572 | -122.30799 | 429 ft | 21 kts | 66° |
| 2026-05-04 01:17 | 47.45548 | -122.30682 | 429 ft | 13 kts | 136° |
| 2026-05-04 01:17 | 47.45467 | -122.30624 | 422 ft | 15 kts | 175° |
| 2026-05-04 01:18 | 47.45349 | -122.30622 | 417 ft | 19 kts | 188° |
| 2026-05-04 01:18 | 47.45201 | -122.30625 | 412 ft | 24 kts | 179° |
| 2026-05-04 01:18 | 47.45074 | -122.30628 | 412 ft | 16 kts | 180° |
| 2026-05-04 01:18 | 47.44945 | -122.30622 | 408 ft | 21 kts | 178° |
| 2026-05-04 01:19 | 47.44784 | -122.30628 | 405 ft | 25 kts | 180° |
| 2026-05-04 01:19 | 47.44611 | -122.30631 | 399 ft | 13 kts | 180° |
| 2026-05-04 01:19 | 47.44504 | -122.30632 | 391 ft | 17 kts | 179° |
| 2026-05-04 01:19 | 47.44370 | -122.30630 | 393 ft | 21 kts | 179° |
| 2026-05-04 01:20 | 47.44226 | -122.30634 | 389 ft | 22 kts | 181° |
| 2026-05-04 01:20 | 47.44126 | -122.30634 | 387 ft | 2 kts | 182° |
| 2026-05-04 01:20 | 47.44115 | -122.30622 | 386 ft | 1 kts | 92° |
| 2026-05-04 01:20 | 47.44118 | -122.30598 | 387 ft | 3 kts | 79° |
| 2026-05-04 01:21 | 47.44123 | -122.30565 | 387 ft | 4 kts | 77° |
| 2026-05-04 01:21 | 47.44126 | -122.30525 | 388 ft | 4 kts | 89° |
| 2026-05-04 01:21 | 47.44126 | -122.30489 | 388 ft | 3 kts | 89° |
| 2026-05-04 01:21 | 47.44126 | -122.30467 | 388 ft | 1 kts | 90° |
| 2026-05-04 01:22 | 47.44126 | -122.30458 | 388 ft | 1 kts | 90° |
| 2026-05-04 01:22 | 47.44126 | -122.30452 | 388 ft | 0 kts | 89° |
| 2026-05-04 01:22 | 47.44126 | -122.30450 | 388 ft | 0 kts | 90° |
| 2026-05-04 01:22 | 47.44126 | -122.30446 | 388 ft | 0 kts | 90° |
| 2026-05-04 01:23 | 47.44126 | -122.30444 | 388 ft | 1 kts | 90° |
| 2026-05-04 01:23 | 47.44126 | -122.30441 | 388 ft | 0 kts | 90° |